sensor_id;sensor_type;location;lat;lon;timestamp;temperature;humidity
67893;DHT22;54688;52.376;16.744;2024-03-02T00:01:27;10.2;87.6
67893;DHT22;54688;52.376;16.744;2024-03-02T00:04:29;10.2;87.6
67893;DHT22;54688;52.376;16.744;2024-03-02T00:07:31;10.2;87.5
67893;DHT22;54688;52.376;16.744;2024-03-02T00:10:36;10.2;87.5
67893;DHT22;54688;52.376;16.744;2024-03-02T00:13:40;10.1;87.5
67893;DHT22;54688;52.376;16.744;2024-03-02T00:16:42;10.2;87.6
67893;DHT22;54688;52.376;16.744;2024-03-02T00:19:44;10.1;87.5
67893;DHT22;54688;52.376;16.744;2024-03-02T00:22:46;10.1;87.5
67893;DHT22;54688;52.376;16.744;2024-03-02T00:25:49;10.1;87.4
67893;DHT22;54688;52.376;16.744;2024-03-02T00:28:55;10.1;87.5
67893;DHT22;54688;52.376;16.744;2024-03-02T00:31:58;10.1;87.4
67893;DHT22;54688;52.376;16.744;2024-03-02T00:35:00;10.1;87.4
67893;DHT22;54688;52.376;16.744;2024-03-02T00:38:03;10.1;87.3
67893;DHT22;54688;52.376;16.744;2024-03-02T00:41:06;10.1;87.4
67893;DHT22;54688;52.376;16.744;2024-03-02T00:44:09;10;87.3
67893;DHT22;54688;52.376;16.744;2024-03-02T00:47:14;10;87.3
67893;DHT22;54688;52.376;16.744;2024-03-02T00:50:16;10.1;87.3
67893;DHT22;54688;52.376;16.744;2024-03-02T00:53:19;10;87.3
67893;DHT22;54688;52.376;16.744;2024-03-02T00:56:25;10;87.3
67893;DHT22;54688;52.376;16.744;2024-03-02T00:59:27;10;87.3
67893;DHT22;54688;52.376;16.744;2024-03-02T01:02:29;10;87.2
67893;DHT22;54688;52.376;16.744;2024-03-02T01:05:31;10;87.2
67893;DHT22;54688;52.376;16.744;2024-03-02T01:08:34;10;87.2
67893;DHT22;54688;52.376;16.744;2024-03-02T01:11:37;10;87.2
67893;DHT22;54688;52.376;16.744;2024-03-02T01:14:39;10;87.2
67893;DHT22;54688;52.376;16.744;2024-03-02T01:17:41;10;87.2
67893;DHT22;54688;52.376;16.744;2024-03-02T01:20:44;10;87.2
67893;DHT22;54688;52.376;16.744;2024-03-02T01:23:46;10;87.2
67893;DHT22;54688;52.376;16.744;2024-03-02T01:26:48;10;87.2
67893;DHT22;54688;52.376;16.744;2024-03-02T01:29:50;10;87.1
67893;DHT22;54688;52.376;16.744;2024-03-02T01:32:52;10;87.1
67893;DHT22;54688;52.376;16.744;2024-03-02T01:35:54;9.9;87
67893;DHT22;54688;52.376;16.744;2024-03-02T01:38:56;10;87.1
67893;DHT22;54688;52.376;16.744;2024-03-02T01:41:59;9.9;86.9
67893;DHT22;54688;52.376;16.744;2024-03-02T01:45:01;9.9;86.9
67893;DHT22;54688;52.376;16.744;2024-03-02T01:48:04;9.9;86.9
67893;DHT22;54688;52.376;16.744;2024-03-02T01:51:06;9.8;87
67893;DHT22;54688;52.376;16.744;2024-03-02T01:54:08;9.8;86.9
67893;DHT22;54688;52.376;16.744;2024-03-02T01:57:10;9.8;87.1
67893;DHT22;54688;52.376;16.744;2024-03-02T02:00:13;9.7;87
67893;DHT22;54688;52.376;16.744;2024-03-02T02:03:15;9.8;87
67893;DHT22;54688;52.376;16.744;2024-03-02T02:06:18;9.7;86.9
67893;DHT22;54688;52.376;16.744;2024-03-02T02:09:21;9.7;86.9
67893;DHT22;54688;52.376;16.744;2024-03-02T02:12:23;9.7;86.8
67893;DHT22;54688;52.376;16.744;2024-03-02T02:15:25;9.7;86.9
67893;DHT22;54688;52.376;16.744;2024-03-02T02:18:28;9.6;87
67893;DHT22;54688;52.376;16.744;2024-03-02T02:21:30;9.7;87
67893;DHT22;54688;52.376;16.744;2024-03-02T02:24:32;9.7;87.1
67893;DHT22;54688;52.376;16.744;2024-03-02T02:27:35;9.7;87.2
67893;DHT22;54688;52.376;16.744;2024-03-02T02:30:37;9.7;87.1
67893;DHT22;54688;52.376;16.744;2024-03-02T02:33:39;9.7;87.1
67893;DHT22;54688;52.376;16.744;2024-03-02T02:36:41;9.6;87
67893;DHT22;54688;52.376;16.744;2024-03-02T02:39:44;9.6;87
67893;DHT22;54688;52.376;16.744;2024-03-02T02:42:46;9.7;87
67893;DHT22;54688;52.376;16.744;2024-03-02T02:45:48;9.6;87
67893;DHT22;54688;52.376;16.744;2024-03-02T02:48:50;9.6;86.9
67893;DHT22;54688;52.376;16.744;2024-03-02T02:51:53;9.6;86.9
67893;DHT22;54688;52.376;16.744;2024-03-02T02:54:55;9.6;86.9
67893;DHT22;54688;52.376;16.744;2024-03-02T02:57:58;9.6;87
67893;DHT22;54688;52.376;16.744;2024-03-02T03:00:59;9.6;86.9
67893;DHT22;54688;52.376;16.744;2024-03-02T03:04:01;9.6;86.9
67893;DHT22;54688;52.376;16.744;2024-03-02T03:07:04;9.6;86.8
67893;DHT22;54688;52.376;16.744;2024-03-02T03:10:07;9.5;86.9
67893;DHT22;54688;52.376;16.744;2024-03-02T03:13:10;9.5;87.9
67893;DHT22;54688;52.376;16.744;2024-03-02T03:16:13;9.5;86.8
67893;DHT22;54688;52.376;16.744;2024-03-02T03:19:14;9.5;86.9
67893;DHT22;54688;52.376;16.744;2024-03-02T03:22:16;9.5;86.8
67893;DHT22;54688;52.376;16.744;2024-03-02T03:25:19;9.5;86.7
67893;DHT22;54688;52.376;16.744;2024-03-02T03:28:22;9.5;86.6
67893;DHT22;54688;52.376;16.744;2024-03-02T03:31:24;9.5;86.7
67893;DHT22;54688;52.376;16.744;2024-03-02T03:34:26;9.4;86.7
67893;DHT22;54688;52.376;16.744;2024-03-02T03:37:29;9.4;86.7
67893;DHT22;54688;52.376;16.744;2024-03-02T03:40:31;9.4;86.8
67893;DHT22;54688;52.376;16.744;2024-03-02T03:43:32;9.4;85.9
67893;DHT22;54688;52.376;16.744;2024-03-02T03:46:34;9.4;86.8
67893;DHT22;54688;52.376;16.744;2024-03-02T03:49:36;9.4;86.7
67893;DHT22;54688;52.376;16.744;2024-03-02T03:52:39;9.4;86.7
67893;DHT22;54688;52.376;16.744;2024-03-02T03:55:40;9.3;86.6
67893;DHT22;54688;52.376;16.744;2024-03-02T03:58:43;9.3;86.7
67893;DHT22;54688;52.376;16.744;2024-03-02T04:01:45;9.3;86.7
67893;DHT22;54688;52.376;16.744;2024-03-02T04:04:47;9.3;86.7
67893;DHT22;54688;52.376;16.744;2024-03-02T04:07:49;9.3;86.9
67893;DHT22;54688;52.376;16.744;2024-03-02T04:10:52;9.3;87
67893;DHT22;54688;52.376;16.744;2024-03-02T04:13:54;9.3;87
67893;DHT22;54688;52.376;16.744;2024-03-02T04:16:56;9.2;87
67893;DHT22;54688;52.376;16.744;2024-03-02T04:19:58;9.2;86.9
67893;DHT22;54688;52.376;16.744;2024-03-02T04:23:01;9.2;87
67893;DHT22;54688;52.376;16.744;2024-03-02T04:26:04;9.2;87
67893;DHT22;54688;52.376;16.744;2024-03-02T04:29:06;9.2;86.9
67893;DHT22;54688;52.376;16.744;2024-03-02T04:32:08;9.2;86.8
67893;DHT22;54688;52.376;16.744;2024-03-02T04:35:12;9.2;86.8
67893;DHT22;54688;52.376;16.744;2024-03-02T04:38:14;9.2;86.8
67893;DHT22;54688;52.376;16.744;2024-03-02T04:41:17;9.2;86.8
67893;DHT22;54688;52.376;16.744;2024-03-02T04:44:19;9.2;86.8
67893;DHT22;54688;52.376;16.744;2024-03-02T04:47:22;9.1;86.7
67893;DHT22;54688;52.376;16.744;2024-03-02T04:50:24;9.1;86.8
67893;DHT22;54688;52.376;16.744;2024-03-02T04:53:26;9.1;86.8
67893;DHT22;54688;52.376;16.744;2024-03-02T04:56:30;9.2;86.7
67893;DHT22;54688;52.376;16.744;2024-03-02T04:59:32;9.1;86.7
67893;DHT22;54688;52.376;16.744;2024-03-02T05:02:35;9.1;86.7
67893;DHT22;54688;52.376;16.744;2024-03-02T05:05:37;9.1;86.6
67893;DHT22;54688;52.376;16.744;2024-03-02T05:08:39;9.1;86.6
67893;DHT22;54688;52.376;16.744;2024-03-02T05:11:42;9.1;86.6
67893;DHT22;54688;52.376;16.744;2024-03-02T05:14:44;9.1;86.5
67893;DHT22;54688;52.376;16.744;2024-03-02T05:17:47;9.1;86.4
67893;DHT22;54688;52.376;16.744;2024-03-02T05:20:49;9;86.3
67893;DHT22;54688;52.376;16.744;2024-03-02T05:23:51;9;86.3
67893;DHT22;54688;52.376;16.744;2024-03-02T05:26:54;9;86.3
67893;DHT22;54688;52.376;16.744;2024-03-02T05:29:57;9;86.4
67893;DHT22;54688;52.376;16.744;2024-03-02T05:32:59;9;86.4
67893;DHT22;54688;52.376;16.744;2024-03-02T05:36:01;9;86.4
67893;DHT22;54688;52.376;16.744;2024-03-02T05:39:03;9;86.4
67893;DHT22;54688;52.376;16.744;2024-03-02T05:42:06;9;86.4
67893;DHT22;54688;52.376;16.744;2024-03-02T05:45:08;9;86.4
67893;DHT22;54688;52.376;16.744;2024-03-02T05:48:11;9;86.3
67893;DHT22;54688;52.376;16.744;2024-03-02T05:51:13;9;86.3
67893;DHT22;54688;52.376;16.744;2024-03-02T05:54:15;9;86.3
67893;DHT22;54688;52.376;16.744;2024-03-02T05:57:17;9;86.3
67893;DHT22;54688;52.376;16.744;2024-03-02T06:00:20;8.9;86.2
67893;DHT22;54688;52.376;16.744;2024-03-02T06:03:22;8.8;86.1
67893;DHT22;54688;52.376;16.744;2024-03-02T06:06:24;8.8;86
67893;DHT22;54688;52.376;16.744;2024-03-02T06:09:27;8.8;86.4
67893;DHT22;54688;52.376;16.744;2024-03-02T06:12:30;8.7;86.6
67893;DHT22;54688;52.376;16.744;2024-03-02T06:15:32;8.7;86.8
67893;DHT22;54688;52.376;16.744;2024-03-02T06:18:34;8.7;86.9
67893;DHT22;54688;52.376;16.744;2024-03-02T06:21:36;8.7;87.1
67893;DHT22;54688;52.376;16.744;2024-03-02T06:24:39;8.8;87.2
67893;DHT22;54688;52.376;16.744;2024-03-02T06:27:41;8.8;87.2
67893;DHT22;54688;52.376;16.744;2024-03-02T06:30:43;8.8;87.2
67893;DHT22;54688;52.376;16.744;2024-03-02T06:33:46;8.9;87.2
67893;DHT22;54688;52.376;16.744;2024-03-02T06:36:48;8.9;87.1
67893;DHT22;54688;52.376;16.744;2024-03-02T06:39:51;8.9;87
67893;DHT22;54688;52.376;16.744;2024-03-02T06:42:53;9;86.8
67893;DHT22;54688;52.376;16.744;2024-03-02T06:45:55;9;86.8
67893;DHT22;54688;52.376;16.744;2024-03-02T06:48:57;9;86.8
67893;DHT22;54688;52.376;16.744;2024-03-02T06:52:00;9;86.7
67893;DHT22;54688;52.376;16.744;2024-03-02T06:55:02;9.1;86.7
67893;DHT22;54688;52.376;16.744;2024-03-02T06:58:04;9.1;86.5
67893;DHT22;54688;52.376;16.744;2024-03-02T07:01:07;9.2;86.4
67893;DHT22;54688;52.376;16.744;2024-03-02T07:04:09;9.2;86.4
67893;DHT22;54688;52.376;16.744;2024-03-02T07:07:12;9.2;86.5
67893;DHT22;54688;52.376;16.744;2024-03-02T07:10:15;9.3;86.5
67893;DHT22;54688;52.376;16.744;2024-03-02T07:13:17;9.3;86.3
67893;DHT22;54688;52.376;16.744;2024-03-02T07:16:20;9.4;86.2
67893;DHT22;54688;52.376;16.744;2024-03-02T07:19:23;9.4;86
67893;DHT22;54688;52.376;16.744;2024-03-02T07:22:25;9.4;85.8
67893;DHT22;54688;52.376;16.744;2024-03-02T07:25:27;9.4;85.6
67893;DHT22;54688;52.376;16.744;2024-03-02T07:28:29;9.4;85.5
67893;DHT22;54688;52.376;16.744;2024-03-02T07:31:33;9.4;85.5
67893;DHT22;54688;52.376;16.744;2024-03-02T07:34:35;9.5;85.4
67893;DHT22;54688;52.376;16.744;2024-03-02T07:37:37;9.5;85.5
67893;DHT22;54688;52.376;16.744;2024-03-02T07:40:39;9.5;85.4
67893;DHT22;54688;52.376;16.744;2024-03-02T07:43:41;9.5;85.4
67893;DHT22;54688;52.376;16.744;2024-03-02T07:46:43;9.6;85.4
67893;DHT22;54688;52.376;16.744;2024-03-02T07:49:46;9.6;85.4
67893;DHT22;54688;52.376;16.744;2024-03-02T07:52:48;9.6;85.4
67893;DHT22;54688;52.376;16.744;2024-03-02T07:55:50;9.6;85.5
67893;DHT22;54688;52.376;16.744;2024-03-02T07:58:53;9.7;85.5
67893;DHT22;54688;52.376;16.744;2024-03-02T08:01:55;9.7;85.4
67893;DHT22;54688;52.376;16.744;2024-03-02T08:04:58;9.8;85.4
67893;DHT22;54688;52.376;16.744;2024-03-02T08:08:00;9.9;85.4
67893;DHT22;54688;52.376;16.744;2024-03-02T08:11:03;10;85.6
67893;DHT22;54688;52.376;16.744;2024-03-02T08:14:04;10;85.3
67893;DHT22;54688;52.376;16.744;2024-03-02T08:17:06;10.1;85.2
67893;DHT22;54688;52.376;16.744;2024-03-02T08:20:09;10.1;84.9
67893;DHT22;54688;52.376;16.744;2024-03-02T08:23:13;10.2;84.8
67893;DHT22;54688;52.376;16.744;2024-03-02T08:26:15;10.3;84.7
67893;DHT22;54688;52.376;16.744;2024-03-02T08:29:17;10.4;84.6
67893;DHT22;54688;52.376;16.744;2024-03-02T08:32:20;10.5;84.5
67893;DHT22;54688;52.376;16.744;2024-03-02T08:35:22;10.6;84.3
67893;DHT22;54688;52.376;16.744;2024-03-02T08:38:25;10.8;84.2
67893;DHT22;54688;52.376;16.744;2024-03-02T08:41:27;10.8;84.1
67893;DHT22;54688;52.376;16.744;2024-03-02T08:44:29;11;83.5
67893;DHT22;54688;52.376;16.744;2024-03-02T08:47:32;11.1;83.3
67893;DHT22;54688;52.376;16.744;2024-03-02T08:50:35;11.2;83
67893;DHT22;54688;52.376;16.744;2024-03-02T08:53:37;11.3;82.2
67893;DHT22;54688;52.376;16.744;2024-03-02T08:56:41;11.4;81.7
67893;DHT22;54688;52.376;16.744;2024-03-02T08:59:44;11.5;81.4
67893;DHT22;54688;52.376;16.744;2024-03-02T09:02:47;11.5;81.1
67893;DHT22;54688;52.376;16.744;2024-03-02T09:05:49;11.6;81.1
67893;DHT22;54688;52.376;16.744;2024-03-02T09:08:51;11.7;81.1
67893;DHT22;54688;52.376;16.744;2024-03-02T09:11:53;11.8;80.8
67893;DHT22;54688;52.376;16.744;2024-03-02T09:14:54;11.9;80.5
67893;DHT22;54688;52.376;16.744;2024-03-02T09:17:57;12.1;79.6
67893;DHT22;54688;52.376;16.744;2024-03-02T09:20:59;12.2;80.3
67893;DHT22;54688;52.376;16.744;2024-03-02T09:24:02;12.3;80.2
67893;DHT22;54688;52.376;16.744;2024-03-02T09:27:05;12.4;79.9
67893;DHT22;54688;52.376;16.744;2024-03-02T09:30:07;12.5;78.8
67893;DHT22;54688;52.376;16.744;2024-03-02T09:33:11;12.6;79
67893;DHT22;54688;52.376;16.744;2024-03-02T09:36:17;12.7;78.9
67893;DHT22;54688;52.376;16.744;2024-03-02T09:39:19;12.8;78.7
67893;DHT22;54688;52.376;16.744;2024-03-02T09:42:21;12.9;78.2
67893;DHT22;54688;52.376;16.744;2024-03-02T09:45:26;13;78.2
67893;DHT22;54688;52.376;16.744;2024-03-02T09:48:28;13.1;77.9
67893;DHT22;54688;52.376;16.744;2024-03-02T09:51:31;13.2;77.7
67893;DHT22;54688;52.376;16.744;2024-03-02T09:54:33;13.3;76.8
67893;DHT22;54688;52.376;16.744;2024-03-02T09:57:35;13.5;75.6
67893;DHT22;54688;52.376;16.744;2024-03-02T10:00:38;13.5;76
67893;DHT22;54688;52.376;16.744;2024-03-02T10:03:40;13.7;75.4
67893;DHT22;54688;52.376;16.744;2024-03-02T10:06:43;13.8;74.6
67893;DHT22;54688;52.376;16.744;2024-03-02T10:09:46;13.9;75
67893;DHT22;54688;52.376;16.744;2024-03-02T10:12:51;14;74.2
67893;DHT22;54688;52.376;16.744;2024-03-02T10:16:10;14;73.8
67893;DHT22;54688;52.376;16.744;2024-03-02T10:19:15;14.1;72.7
67893;DHT22;54688;52.376;16.744;2024-03-02T10:22:18;14.1;73.5
67893;DHT22;54688;52.376;16.744;2024-03-02T10:25:28;14.1;73.6
67893;DHT22;54688;52.376;16.744;2024-03-02T10:28:30;14.1;74.2
67893;DHT22;54688;52.376;16.744;2024-03-02T10:31:33;14.1;73.1
67893;DHT22;54688;52.376;16.744;2024-03-02T10:34:35;14.2;73.5
67893;DHT22;54688;52.376;16.744;2024-03-02T10:37:38;14.2;73.1
67893;DHT22;54688;52.376;16.744;2024-03-02T10:40:40;14.3;73.8
67893;DHT22;54688;52.376;16.744;2024-03-02T10:43:42;14.4;74.6
67893;DHT22;54688;52.376;16.744;2024-03-02T10:46:45;14.5;74.7
67893;DHT22;54688;52.376;16.744;2024-03-02T10:49:51;14.5;73.7
67893;DHT22;54688;52.376;16.744;2024-03-02T10:52:56;14.6;73.4
67893;DHT22;54688;52.376;16.744;2024-03-02T10:55:58;14.7;72.6
67893;DHT22;54688;52.376;16.744;2024-03-02T10:59:02;14.8;72.8
67893;DHT22;54688;52.376;16.744;2024-03-02T11:02:04;14.9;72.5
67893;DHT22;54688;52.376;16.744;2024-03-02T11:05:08;14.9;71.6
67893;DHT22;54688;52.376;16.744;2024-03-02T11:08:12;14.9;70.7
67893;DHT22;54688;52.376;16.744;2024-03-02T11:11:18;14.9;71.3
67893;DHT22;54688;52.376;16.744;2024-03-02T11:14:24;15;70.9
67893;DHT22;54688;52.376;16.744;2024-03-02T11:17:26;15;71.1
67893;DHT22;54688;52.376;16.744;2024-03-02T11:20:29;15.1;70.5
67893;DHT22;54688;52.376;16.744;2024-03-02T11:23:32;15.2;69.7
67893;DHT22;54688;52.376;16.744;2024-03-02T11:26:36;15.3;69.1
67893;DHT22;54688;52.376;16.744;2024-03-02T11:29:44;15.4;68.7
67893;DHT22;54688;52.376;16.744;2024-03-02T11:32:50;15.5;69.3
67893;DHT22;54688;52.376;16.744;2024-03-02T11:35:57;15.6;69.5
67893;DHT22;54688;52.376;16.744;2024-03-02T11:39:00;15.7;69.9
67893;DHT22;54688;52.376;16.744;2024-03-02T11:42:02;15.7;68.7
67893;DHT22;54688;52.376;16.744;2024-03-02T11:45:05;15.8;68.2
67893;DHT22;54688;52.376;16.744;2024-03-02T11:48:11;15.8;66.2
67893;DHT22;54688;52.376;16.744;2024-03-02T11:51:15;15.8;66.4
67893;DHT22;54688;52.376;16.744;2024-03-02T11:54:18;15.7;67.5
67893;DHT22;54688;52.376;16.744;2024-03-02T11:57:21;15.8;68.2
67893;DHT22;54688;52.376;16.744;2024-03-02T12:00:25;15.7;67.5
67893;DHT22;54688;52.376;16.744;2024-03-02T12:03:26;15.7;68.1
67893;DHT22;54688;52.376;16.744;2024-03-02T12:06:29;15.7;67.8
67893;DHT22;54688;52.376;16.744;2024-03-02T12:09:30;15.8;66.8
67893;DHT22;54688;52.376;16.744;2024-03-02T12:12:33;15.9;66.1
67893;DHT22;54688;52.376;16.744;2024-03-02T12:15:35;16;66.5
67893;DHT22;54688;52.376;16.744;2024-03-02T12:18:39;16;65.7
67893;DHT22;54688;52.376;16.744;2024-03-02T12:21:43;16;65.5
67893;DHT22;54688;52.376;16.744;2024-03-02T12:24:46;16;64.9
67893;DHT22;54688;52.376;16.744;2024-03-02T12:27:49;16.1;65.1
67893;DHT22;54688;52.376;16.744;2024-03-02T12:30:52;16;65
67893;DHT22;54688;52.376;16.744;2024-03-02T12:33:54;16.1;65.6
67893;DHT22;54688;52.376;16.744;2024-03-02T12:36:57;16.1;65.5
67893;DHT22;54688;52.376;16.744;2024-03-02T12:40:00;16.2;65.7
67893;DHT22;54688;52.376;16.744;2024-03-02T12:43:04;16.3;65.8
67893;DHT22;54688;52.376;16.744;2024-03-02T12:46:06;16.3;66.7
67893;DHT22;54688;52.376;16.744;2024-03-02T12:49:09;16.4;66.8
67893;DHT22;54688;52.376;16.744;2024-03-02T12:52:13;16.4;67.3
67893;DHT22;54688;52.376;16.744;2024-03-02T12:55:15;16.5;67
67893;DHT22;54688;52.376;16.744;2024-03-02T12:58:18;16.5;67.3
67893;DHT22;54688;52.376;16.744;2024-03-02T13:01:21;16.5;67.5
67893;DHT22;54688;52.376;16.744;2024-03-02T13:04:24;16.6;67
67893;DHT22;54688;52.376;16.744;2024-03-02T13:07:26;16.6;67.3
67893;DHT22;54688;52.376;16.744;2024-03-02T13:10:29;16.6;64.5
67893;DHT22;54688;52.376;16.744;2024-03-02T13:13:31;16.5;63.3
67893;DHT22;54688;52.376;16.744;2024-03-02T13:16:38;16.5;63.3
67893;DHT22;54688;52.376;16.744;2024-03-02T13:19:43;16.5;64.1
67893;DHT22;54688;52.376;16.744;2024-03-02T13:22:52;16.4;64.7
67893;DHT22;54688;52.376;16.744;2024-03-02T13:25:54;16.4;64
67893;DHT22;54688;52.376;16.744;2024-03-02T13:28:57;16.4;63.9
67893;DHT22;54688;52.376;16.744;2024-03-02T13:31:59;16.3;64.2
67893;DHT22;54688;52.376;16.744;2024-03-02T13:35:02;16.3;63.9
67893;DHT22;54688;52.376;16.744;2024-03-02T13:38:04;16.3;65
67893;DHT22;54688;52.376;16.744;2024-03-02T13:41:07;16.3;65.2
67893;DHT22;54688;52.376;16.744;2024-03-02T13:44:10;16.4;64.7
67893;DHT22;54688;52.376;16.744;2024-03-02T13:47:13;16.4;64
67893;DHT22;54688;52.376;16.744;2024-03-02T13:50:15;16.4;64.4
67893;DHT22;54688;52.376;16.744;2024-03-02T13:53:17;16.4;64.1
67893;DHT22;54688;52.376;16.744;2024-03-02T13:56:19;16.3;63.9
67893;DHT22;54688;52.376;16.744;2024-03-02T13:59:22;16.3;64.3
67893;DHT22;54688;52.376;16.744;2024-03-02T14:02:24;16.3;64.2
67893;DHT22;54688;52.376;16.744;2024-03-02T14:05:27;16.3;64.3
67893;DHT22;54688;52.376;16.744;2024-03-02T14:08:29;16.3;64.2
67893;DHT22;54688;52.376;16.744;2024-03-02T14:11:31;16.4;64.6
67893;DHT22;54688;52.376;16.744;2024-03-02T14:14:34;16.4;65.1
67893;DHT22;54688;52.376;16.744;2024-03-02T14:17:36;16.4;65.1
67893;DHT22;54688;52.376;16.744;2024-03-02T14:20:38;16.4;64.8
67893;DHT22;54688;52.376;16.744;2024-03-02T14:23:40;16.3;65
67893;DHT22;54688;52.376;16.744;2024-03-02T14:26:43;16.3;64
67893;DHT22;54688;52.376;16.744;2024-03-02T14:29:45;16.3;65.3
67893;DHT22;54688;52.376;16.744;2024-03-02T14:32:48;16.2;65.3
67893;DHT22;54688;52.376;16.744;2024-03-02T14:35:50;16.2;66.1
67893;DHT22;54688;52.376;16.744;2024-03-02T14:38:52;16.1;65.4
67893;DHT22;54688;52.376;16.744;2024-03-02T14:41:55;16.1;66
67893;DHT22;54688;52.376;16.744;2024-03-02T14:44:58;16.1;66.7
67893;DHT22;54688;52.376;16.744;2024-03-02T14:48:00;16;66.9
67893;DHT22;54688;52.376;16.744;2024-03-02T14:51:04;15.9;67.8
67893;DHT22;54688;52.376;16.744;2024-03-02T14:54:06;15.9;67.5
67893;DHT22;54688;52.376;16.744;2024-03-02T14:57:08;15.8;68
67893;DHT22;54688;52.376;16.744;2024-03-02T15:00:11;15.8;68.3
67893;DHT22;54688;52.376;16.744;2024-03-02T15:03:14;15.7;68.6
67893;DHT22;54688;52.376;16.744;2024-03-02T15:06:16;15.6;69.3
67893;DHT22;54688;52.376;16.744;2024-03-02T15:09:19;15.5;70
67893;DHT22;54688;52.376;16.744;2024-03-02T15:12:22;15.4;69.8
67893;DHT22;54688;52.376;16.744;2024-03-02T15:15:25;15.3;70.5
67893;DHT22;54688;52.376;16.744;2024-03-02T15:18:27;15.2;70.8
67893;DHT22;54688;52.376;16.744;2024-03-02T15:21:29;15.2;70.5
67893;DHT22;54688;52.376;16.744;2024-03-02T15:24:31;15.1;70.7
67893;DHT22;54688;52.376;16.744;2024-03-02T15:27:34;15;71.2
67893;DHT22;54688;52.376;16.744;2024-03-02T15:30:36;15;71.4
67893;DHT22;54688;52.376;16.744;2024-03-02T15:33:38;14.9;71.8
67893;DHT22;54688;52.376;16.744;2024-03-02T15:36:41;14.8;72.6
67893;DHT22;54688;52.376;16.744;2024-03-02T15:39:44;14.8;73
67893;DHT22;54688;52.376;16.744;2024-03-02T15:42:47;14.7;73.3
67893;DHT22;54688;52.376;16.744;2024-03-02T15:45:50;14.7;72.8
67893;DHT22;54688;52.376;16.744;2024-03-02T15:48:52;14.6;73.2
67893;DHT22;54688;52.376;16.744;2024-03-02T15:51:54;14.5;73.4
67893;DHT22;54688;52.376;16.744;2024-03-02T15:54:57;14.5;74.1
67893;DHT22;54688;52.376;16.744;2024-03-02T15:57:59;14.4;73.8
67893;DHT22;54688;52.376;16.744;2024-03-02T16:01:02;14.3;73.5
67893;DHT22;54688;52.376;16.744;2024-03-02T16:04:04;14.3;74.2
67893;DHT22;54688;52.376;16.744;2024-03-02T16:07:06;14.2;74.5
67893;DHT22;54688;52.376;16.744;2024-03-02T16:10:09;14.2;74.7
67893;DHT22;54688;52.376;16.744;2024-03-02T16:13:11;14.1;75.2
67893;DHT22;54688;52.376;16.744;2024-03-02T16:16:13;14;74.9
67893;DHT22;54688;52.376;16.744;2024-03-02T16:19:15;14;75.4
67893;DHT22;54688;52.376;16.744;2024-03-02T16:22:18;13.9;75.3
67893;DHT22;54688;52.376;16.744;2024-03-02T16:25:21;13.9;75.5
67893;DHT22;54688;52.376;16.744;2024-03-02T16:28:23;13.8;74.6
67893;DHT22;54688;52.376;16.744;2024-03-02T16:31:26;13.8;74.5
67893;DHT22;54688;52.376;16.744;2024-03-02T16:34:28;13.7;75
67893;DHT22;54688;52.376;16.744;2024-03-02T16:37:30;13.7;75.4
67893;DHT22;54688;52.376;16.744;2024-03-02T16:40:32;13.6;75.7
67893;DHT22;54688;52.376;16.744;2024-03-02T16:43:35;13.5;76.1
67893;DHT22;54688;52.376;16.744;2024-03-02T16:46:38;13.5;76.6
67893;DHT22;54688;52.376;16.744;2024-03-02T16:49:40;13.4;76.8
67893;DHT22;54688;52.376;16.744;2024-03-02T16:52:42;13.4;76.8
67893;DHT22;54688;52.376;16.744;2024-03-02T16:55:44;13.3;77.1
67893;DHT22;54688;52.376;16.744;2024-03-02T16:58:46;13.2;77.8
67893;DHT22;54688;52.376;16.744;2024-03-02T17:01:49;13.2;77.3
67893;DHT22;54688;52.376;16.744;2024-03-02T17:04:51;13.1;77.3
67893;DHT22;54688;52.376;16.744;2024-03-02T17:07:53;13.1;77.3
67893;DHT22;54688;52.376;16.744;2024-03-02T17:10:56;13;77.1
67893;DHT22;54688;52.376;16.744;2024-03-02T17:13:58;13;77.7
67893;DHT22;54688;52.376;16.744;2024-03-02T17:17:00;12.9;77.9
67893;DHT22;54688;52.376;16.744;2024-03-02T17:20:03;12.9;78
67893;DHT22;54688;52.376;16.744;2024-03-02T17:23:06;12.8;78.1
67893;DHT22;54688;52.376;16.744;2024-03-02T17:26:09;12.8;78.6
67893;DHT22;54688;52.376;16.744;2024-03-02T17:29:11;12.7;78.8
67893;DHT22;54688;52.376;16.744;2024-03-02T17:32:13;12.7;78.9
67893;DHT22;54688;52.376;16.744;2024-03-02T17:35:16;12.7;79
67893;DHT22;54688;52.376;16.744;2024-03-02T17:38:18;12.6;78.9
67893;DHT22;54688;52.376;16.744;2024-03-02T17:41:20;12.6;78.5
67893;DHT22;54688;52.376;16.744;2024-03-02T17:44:23;12.6;78.8
67893;DHT22;54688;52.376;16.744;2024-03-02T17:47:26;12.5;78.6
67893;DHT22;54688;52.376;16.744;2024-03-02T17:50:28;12.5;78.8
67893;DHT22;54688;52.376;16.744;2024-03-02T17:53:31;12.5;78.9
67893;DHT22;54688;52.376;16.744;2024-03-02T17:56:34;12.4;79
67893;DHT22;54688;52.376;16.744;2024-03-02T17:59:36;12.4;78.8
67893;DHT22;54688;52.376;16.744;2024-03-02T18:02:37;12.3;78.8
67893;DHT22;54688;52.376;16.744;2024-03-02T18:05:39;12.3;79
67893;DHT22;54688;52.376;16.744;2024-03-02T18:08:42;12.3;79.3
67893;DHT22;54688;52.376;16.744;2024-03-02T18:11:45;12.3;79.3
67893;DHT22;54688;52.376;16.744;2024-03-02T18:14:47;12.3;79.2
67893;DHT22;54688;52.376;16.744;2024-03-02T18:17:49;12.2;79.3
67893;DHT22;54688;52.376;16.744;2024-03-02T18:20:51;12.2;79.4
67893;DHT22;54688;52.376;16.744;2024-03-02T18:23:52;12.1;79.3
67893;DHT22;54688;52.376;16.744;2024-03-02T18:26:55;12.1;79.3
67893;DHT22;54688;52.376;16.744;2024-03-02T18:29:58;12.1;79.3
67893;DHT22;54688;52.376;16.744;2024-03-02T18:33:00;12;79.4
67893;DHT22;54688;52.376;16.744;2024-03-02T18:36:03;12;79.4
67893;DHT22;54688;52.376;16.744;2024-03-02T18:39:06;11.9;79.4
67893;DHT22;54688;52.376;16.744;2024-03-02T18:42:08;11.8;79.4
67893;DHT22;54688;52.376;16.744;2024-03-02T18:45:11;11.8;79.8
67893;DHT22;54688;52.376;16.744;2024-03-02T18:48:14;11.7;79.9
67893;DHT22;54688;52.376;16.744;2024-03-02T18:51:19;11.7;80
67893;DHT22;54688;52.376;16.744;2024-03-02T18:54:22;11.6;79.9
67893;DHT22;54688;52.376;16.744;2024-03-02T18:57:24;11.5;80.1
67893;DHT22;54688;52.376;16.744;2024-03-02T19:00:26;11.5;80.5
67893;DHT22;54688;52.376;16.744;2024-03-02T19:03:29;11.4;80.1
67893;DHT22;54688;52.376;16.744;2024-03-02T19:06:31;11.4;80.2
67893;DHT22;54688;52.376;16.744;2024-03-02T19:09:33;11.4;80.4
67893;DHT22;54688;52.376;16.744;2024-03-02T19:12:36;11.3;80.3
67893;DHT22;54688;52.376;16.744;2024-03-02T19:15:38;11.3;80.3
67893;DHT22;54688;52.376;16.744;2024-03-02T19:18:40;11.2;80.4
67893;DHT22;54688;52.376;16.744;2024-03-02T19:21:44;11.2;80.5
67893;DHT22;54688;52.376;16.744;2024-03-02T19:24:46;11.1;80.5
67893;DHT22;54688;52.376;16.744;2024-03-02T19:27:48;11.1;80.8
67893;DHT22;54688;52.376;16.744;2024-03-02T19:30:50;11.1;80.9
67893;DHT22;54688;52.376;16.744;2024-03-02T19:33:52;11;80.8
67893;DHT22;54688;52.376;16.744;2024-03-02T19:36:54;11;80.9
67893;DHT22;54688;52.376;16.744;2024-03-02T19:39:57;10.9;81.2
67893;DHT22;54688;52.376;16.744;2024-03-02T19:42:59;10.9;81.3
67893;DHT22;54688;52.376;16.744;2024-03-02T19:46:03;10.8;81.5
67893;DHT22;54688;52.376;16.744;2024-03-02T19:49:05;10.8;81.4